Time;durP1;ratioP1;P1;durP2;ratioP2;P2;SDS_P1;SDS_P2;PMS_P1;PMS_P2;Temp;Humidity;BMP_temperature;BMP_pressure;BME280_temperature;BME280_humidity;BME280_pressure;Samples;Min_cycle;Max_cycle;Signal;HPM_P1;HPM_P2
2021/08/25 00:02:04;;;;;;;11.57;9.08;;;;;;;21.16;100.00;98877.02;1724234;81;21038;-70
2021/08/25 00:04:34;;;;;;;11.63;9.35;;;;;;;21.15;100.00;98878.83;1737001;81;21905;-70
2021/08/25 00:07:07;;;;;;;12.07;9.28;;;;;;;21.12;100.00;98876.31;1734783;81;21522;-71
2021/08/25 00:09:40;;;;;;;15.28;9.45;;;;;;;21.12;100.00;98878.13;1737375;81;21385;-69
2021/08/25 00:12:11;;;;;;;13.38;9.48;;;;;;;21.12;100.00;98871.42;1734198;81;21582;-69
2021/08/25 00:14:42;;;;;;;13.15;9.35;;;;;;;21.12;100.00;98872.30;1737013;81;21081;-70
2021/08/25 00:17:12;;;;;;;13.43;9.90;;;;;;;21.09;100.00;98871.11;1713959;81;21044;-70
2021/08/25 00:19:43;;;;;;;12.03;8.80;;;;;;;21.06;100.00;98873.48;1708661;82;21027;-70
2021/08/25 00:22:13;;;;;;;14.87;9.68;;;;;;;21.06;100.00;98875.30;1706437;82;21093;-69
2021/08/25 00:24:43;;;;;;;14.23;9.55;;;;;;;21.08;100.00;98880.11;1706344;84;21134;-69
2021/08/25 00:27:11;;;;;;;11.83;8.78;;;;;;;21.07;100.00;98878.38;1727549;81;21205;-69
2021/08/25 00:29:41;;;;;;;14.78;9.80;;;;;;;21.04;100.00;98872.70;1737388;81;20968;-69
2021/08/25 00:32:09;;;;;;;11.15;8.75;;;;;;;21.02;100.00;98865.69;1716830;81;21022;-70
2021/08/25 00:34:40;;;;;;;11.63;9.40;;;;;;;21.00;100.00;98856.86;1706444;82;21452;-70
2021/08/25 00:37:10;;;;;;;15.78;9.68;;;;;;;21.00;100.00;98838.95;1706909;82;21452;-70
2021/08/25 00:39:39;;;;;;;11.40;8.73;;;;;;;20.99;100.00;98837.69;1731074;81;21518;-69
2021/08/25 00:42:08;;;;;;;14.00;9.48;;;;;;;20.97;100.00;98849.84;1734383;81;20979;-70
2021/08/25 00:44:37;;;;;;;12.50;9.30;;;;;;;20.95;100.00;98847.72;1733800;81;20955;-69
2021/08/25 00:47:09;;;;;;;14.23;8.70;;;;;;;20.95;100.00;98852.21;1708408;81;22011;-69
2021/08/25 00:49:39;;;;;;;12.03;8.73;;;;;;;20.95;100.00;98846.38;1706947;82;20972;-67
2021/08/25 00:52:08;;;;;;;9.68;8.28;;;;;;;20.95;100.00;98839.67;1706654;82;21059;-69
2021/08/25 00:54:36;;;;;;;13.58;8.78;;;;;;;20.93;100.00;98838.02;1706643;84;21011;-68
2021/08/25 00:57:06;;;;;;;13.78;9.25;;;;;;;20.91;100.00;98838.10;1706549;82;21013;-69
2021/08/25 00:59:35;;;;;;;11.18;8.50;;;;;;;20.91;100.00;98841.26;1708526;82;21129;-69
2021/08/25 01:02:15;;;;;;;10.05;8.50;;;;;;;20.93;100.00;98843.38;1729142;81;20996;-69
2021/08/25 01:04:51;;;;;;;12.65;9.20;;;;;;;20.92;100.00;98847.88;1736709;81;21016;-69
2021/08/25 01:07:24;;;;;;;13.30;9.45;;;;;;;20.91;100.00;98838.10;1737181;81;21448;-69
2021/08/25 01:09:54;;;;;;;11.25;8.58;;;;;;;20.91;100.00;98846.14;1733338;81;21597;-67
2021/08/25 01:12:26;;;;;;;10.68;8.38;;;;;;;20.90;100.00;98836.84;1736961;82;21558;-67
2021/08/25 01:14:57;;;;;;;13.70;8.70;;;;;;;20.91;100.00;98842.13;1737282;82;21498;-68
2021/08/25 01:17:28;;;;;;;11.70;9.78;;;;;;;20.92;100.00;98847.88;1737148;82;20983;-68
2021/08/25 01:20:07;;;;;;;16.55;14.85;;;;;;;20.90;100.00;98840.86;1736751;82;20944;-68
2021/08/25 01:22:39;;;;;;;16.05;14.45;;;;;;;20.90;100.00;98842.20;1708043;84;20919;-68
2021/08/25 01:25:12;;;;;;;16.00;14.38;;;;;;;20.90;100.00;98844.89;1682401;84;21451;-69
2021/08/25 01:27:47;;;;;;;12.80;10.78;;;;;;;20.90;100.00;98851.59;1706766;82;20953;-68
2021/08/25 01:30:17;;;;;;;12.33;9.83;;;;;;;20.89;100.00;98848.52;1706559;82;21495;-70
2021/08/25 01:32:50;;;;;;;12.98;9.68;;;;;;;20.84;100.00;98847.42;1708311;82;21563;-69
2021/08/25 01:35:23;;;;;;;12.55;8.85;;;;;;;20.77;100.00;98842.42;1705251;82;21585;-69
2021/08/25 01:37:54;;;;;;;11.45;8.90;;;;;;;20.71;100.00;98836.44;1705206;82;20889;-68
2021/08/25 01:40:24;;;;;;;11.90;9.15;;;;;;;20.69;100.00;98832.11;1706535;84;21570;-65
2021/08/25 01:42:55;;;;;;;11.75;9.20;;;;;;;20.65;100.00;98827.37;1708330;82;21071;-68
2021/08/25 01:45:27;;;;;;;15.78;8.58;;;;;;;20.63;100.00;98828.41;1710583;81;20988;-69
2021/08/25 01:48:03;;;;;;;89.05;10.45;;;;;;;20.60;100.00;98825.89;1732806;81;20955;-68
2021/08/25 01:50:31;;;;;;;12.90;8.23;;;;;;;20.60;100.00;98835.27;1711952;81;23646;-68
2021/08/25 01:53:00;;;;;;;10.58;8.48;;;;;;;20.62;100.00;98838.73;1735101;81;20944;-68
2021/08/25 01:55:29;;;;;;;11.80;8.60;;;;;;;20.63;100.00;98835.11;1736842;81;20960;-68
2021/08/25 01:58:04;;;;;;;12.15;8.90;;;;;;;20.63;100.00;98835.11;1737102;81;20991;-68
2021/08/25 02:00:30;;;;;;;11.70;8.38;;;;;;;20.63;100.00;98833.77;1733975;81;21570;-68
2021/08/25 02:03:01;;;;;;;10.28;7.97;;;;;;;20.63;100.00;98835.97;1708627;81;21530;-68
2021/08/25 02:05:32;;;;;;;14.25;9.05;;;;;;;20.66;100.00;98839.83;1708689;81;20916;-68
2021/08/25 02:08:02;;;;;;;11.83;8.18;;;;;;;20.67;100.00;98832.19;1706499;84;21507;-69
2021/08/25 02:10:34;;;;;;;10.98;8.78;;;;;;;20.66;100.00;98825.56;1707059;82;21563;-69
2021/08/25 02:13:04;;;;;;;11.75;8.98;;;;;;;20.65;100.00;98823.83;1706808;82;21011;-69
2021/08/25 02:15:35;;;;;;;11.03;7.95;;;;;;;20.66;100.00;98824.23;1735983;81;21805;-69
2021/08/25 02:18:03;;;;;;;11.08;8.05;;;;;;;20.67;100.00;98821.47;1737384;81;20968;-70
2021/08/25 02:20:31;;;;;;;16.97;8.70;;;;;;;20.68;100.00;98825.02;1732519;81;21003;-69
2021/08/25 02:23:00;;;;;;;11.03;8.65;;;;;;;20.67;100.00;98824.15;1712794;82;20932;-69
2021/08/25 02:25:31;;;;;;;10.78;8.43;;;;;;;20.67;100.00;98823.28;1732873;81;20951;-69
2021/08/25 02:28:01;;;;;;;11.00;8.23;;;;;;;20.66;100.00;98818.39;1737333;81;21970;-68
2021/08/25 02:30:31;;;;;;;19.15;10.03;;;;;;;20.67;100.00;98820.13;1734198;81;20865;-70
2021/08/25 02:33:01;;;;;;;13.00;9.50;;;;;;;20.68;100.00;98823.20;1706333;82;21502;-69
2021/08/25 02:35:30;;;;;;;11.60;9.33;;;;;;;20.68;100.00;98827.22;1708626;82;21028;-69
2021/08/25 02:37:59;;;;;;;11.33;8.95;;;;;;;20.67;100.00;98829.98;1732404;81;21550;-68
2021/08/25 02:40:29;;;;;;;11.50;8.80;;;;;;;20.66;100.00;98829.59;1706773;82;21131;-69
2021/08/25 02:42:59;;;;;;;12.28;8.60;;;;;;;20.66;100.00;98833.13;1735178;81;21648;-68
2021/08/25 02:45:30;;;;;;;13.70;9.40;;;;;;;20.66;100.00;98832.27;1735342;81;20947;-68
2021/08/25 02:48:01;;;;;;;11.65;9.00;;;;;;;20.66;100.00;98829.11;1737367;81;21543;-68
2021/08/25 02:50:30;;;;;;;10.68;8.30;;;;;;;20.65;100.00;98831.88;1718063;81;21052;-69
2021/08/25 02:53:00;;;;;;;11.63;8.53;;;;;;;20.63;100.00;98829.27;1734551;82;21566;-69
2021/08/25 02:55:30;;;;;;;16.73;8.93;;;;;;;20.64;100.00;98831.01;1736926;82;20953;-69
2021/08/25 02:58:00;;;;;;;14.83;8.88;;;;;;;20.65;100.00;98832.73;1737562;82;21066;-69
2021/08/25 03:00:29;;;;;;;13.25;8.93;;;;;;;20.64;100.00;98836.84;1734742;82;21238;-68
2021/08/25 03:02:59;;;;;;;11.43;8.55;;;;;;;20.63;100.00;98837.78;1714182;82;21710;-68
2021/08/25 03:05:29;;;;;;;9.18;7.20;;;;;;;20.62;100.00;98844.09;1707873;82;21648;-68
2021/08/25 03:08:00;;;;;;;10.72;8.08;;;;;;;20.62;100.00;98845.44;1708138;84;21047;-68
2021/08/25 03:10:30;;;;;;;10.23;7.58;;;;;;;20.61;100.00;98855.28;1709544;82;21946;-68
2021/08/25 03:13:01;;;;;;;13.60;7.95;;;;;;;20.60;100.00;98850.87;1706960;82;21021;-68
2021/08/25 03:15:32;;;;;;;8.90;7.25;;;;;;;20.59;100.00;98854.97;1708240;81;21075;-68
2021/08/25 03:18:01;;;;;;;8.48;7.45;;;;;;;20.58;100.00;98861.28;1724618;81;21146;-68
2021/08/25 03:20:31;;;;;;;9.80;7.58;;;;;;;20.58;100.00;98871.52;1734890;81;21628;-68
2021/08/25 03:23:00;;;;;;;9.00;7.67;;;;;;;20.56;100.00;98866.72;1706606;82;21137;-68
2021/08/25 03:25:29;;;;;;;11.65;7.58;;;;;;;20.54;100.00;98867.27;1708240;82;20940;-70
2021/08/25 03:27:57;;;;;;;9.80;7.65;;;;;;;20.52;100.00;98869.16;1706866;82;20996;-70
2021/08/25 03:30:30;;;;;;;8.80;7.03;;;;;;;20.49;100.00;98866.63;1708711;81;21491;-70
2021/08/25 03:33:01;;;;;;;13.38;7.65;;;;;;;20.51;100.00;98870.58;1706372;82;21463;-69
2021/08/25 03:35:30;;;;;;;8.35;7.00;;;;;;;20.50;100.00;98863.48;1682891;82;21070;-69
2021/08/25 03:37:59;;;;;;;9.38;7.20;;;;;;;20.49;100.00;98863.09;1730254;81;20928;-70
2021/08/25 03:40:28;;;;;;;8.10;7.28;;;;;;;20.48;100.00;98869.39;1735107;81;21492;-69
2021/08/25 03:42:56;;;;;;;7.87;6.95;;;;;;;20.46;100.00;98875.30;1707878;82;21143;-70
2021/08/25 03:45:24;;;;;;;11.55;7.62;;;;;;;20.45;100.00;98867.73;1721513;81;21019;-68
2021/08/25 03:47:56;;;;;;;10.60;6.92;;;;;;;20.47;100.00;98869.86;1737196;81;20979;-69
2021/08/25 03:50:25;;;;;;;10.70;8.33;;;;;;;20.45;100.00;98869.08;1737294;81;21531;-69
2021/08/25 03:52:56;;;;;;;9.25;8.23;;;;;;;20.45;100.00;98869.55;1719943;81;21590;-70
2021/08/25 03:55:26;;;;;;;9.43;8.00;;;;;;;20.42;100.00;98874.11;1705243;82;21495;-69
2021/08/25 03:57:54;;;;;;;8.98;8.00;;;;;;;20.42;100.00;98863.88;1706516;82;20987;-69
2021/08/25 04:00:24;;;;;;;9.63;7.92;;;;;;;20.42;100.00;98867.89;1706602;82;21027;-68
2021/08/25 04:02:53;;;;;;;10.68;7.90;;;;;;;20.41;100.00;98860.80;1706408;82;20925;-68
2021/08/25 04:05:22;;;;;;;10.88;7.53;;;;;;;20.39;100.00;98860.88;1706794;82;21006;-68
2021/08/25 04:07:51;;;;;;;10.25;8.23;;;;;;;20.36;100.00;98859.66;1708305;81;21445;-69
2021/08/25 04:10:19;;;;;;;10.25;8.90;;;;;;;20.37;100.00;98863.20;1706389;81;21515;-69
2021/08/25 04:12:49;;;;;;;11.00;9.55;;;;;;;20.37;100.00;98865.41;1706499;82;21504;-69
2021/08/25 04:15:18;;;;;;;10.43;8.55;;;;;;;20.37;100.00;98869.91;1706333;82;20956;-69
2021/08/25 04:17:46;;;;;;;8.53;7.28;;;;;;;20.36;100.00;98866.83;1707739;82;21511;-68
2021/08/25 04:20:14;;;;;;;9.28;6.75;;;;;;;20.36;100.00;98868.17;1702270;82;21974;-68
2021/08/25 04:22:42;;;;;;;8.58;6.92;;;;;;;20.36;100.00;98865.48;1699603;83;21003;-69
2021/08/25 04:25:11;;;;;;;8.50;6.55;;;;;;;20.36;100.00;98860.13;1701829;84;21066;-70
2021/08/25 04:27:41;;;;;;;7.50;6.40;;;;;;;20.36;100.00;98857.45;1733499;82;20960;-70
2021/08/25 04:30:11;;;;;;;6.75;6.00;;;;;;;20.34;100.00;98848.16;1735258;82;21614;-70
2021/08/25 04:32:40;;;;;;;7.47;5.65;;;;;;;20.34;100.00;98849.49;1705997;82;21555;-69
2021/08/25 04:35:10;;;;;;;7.65;6.20;;;;;;;20.35;100.00;98843.66;1699400;83;21564;-69
2021/08/25 04:37:40;;;;;;;7.78;5.95;;;;;;;20.36;100.00;98847.60;1719199;82;21027;-69
2021/08/25 04:40:09;;;;;;;6.83;6.05;;;;;;;20.37;100.00;98851.16;1729699;82;21535;-67
2021/08/25 04:42:38;;;;;;;8.20;6.20;;;;;;;20.35;100.00;98855.25;1729913;82;20956;-69
2021/08/25 04:45:08;;;;;;;7.17;5.72;;;;;;;20.36;100.00;98856.11;1729697;82;21135;-69
2021/08/25 04:47:39;;;;;;;7.97;6.07;;;;;;;20.38;100.00;98856.43;1701909;82;21118;-63
2021/08/25 04:50:08;;;;;;;6.95;5.70;;;;;;;20.40;100.00;98847.02;1699434;84;21433;-63
2021/08/25 04:52:36;;;;;;;6.95;6.25;;;;;;;20.39;100.00;98843.46;1718579;82;21020;-63
2021/08/25 04:55:06;;;;;;;7.80;5.97;;;;;;;20.41;100.00;98845.59;1730118;82;21487;-63
2021/08/25 04:57:33;;;;;;;8.05;6.53;;;;;;;20.44;100.00;98837.88;1725749;82;21935;-63
2021/08/25 05:00:04;;;;;;;9.35;6.83;;;;;;;20.48;100.00;98839.92;1728364;82;21535;-64
2021/08/25 05:02:32;;;;;;;9.93;7.25;;;;;;;20.54;100.00;98847.17;1699485;84;21016;-63
2021/08/25 05:05:02;;;;;;;8.03;6.40;;;;;;;20.59;100.00;98837.55;1700341;83;21456;-61
2021/08/25 05:07:30;;;;;;;8.35;6.33;;;;;;;20.65;100.00;98845.27;1702949;83;21423;-64
2021/08/25 05:10:00;;;;;;;8.18;5.87;;;;;;;20.72;100.00;98844.88;1699901;83;21149;-64
2021/08/25 05:12:29;;;;;;;8.28;6.30;;;;;;;20.82;100.00;98849.31;1701183;83;21463;-64
2021/08/25 05:14:56;;;;;;;9.33;6.85;;;;;;;20.89;100.00;98844.02;1703137;83;20947;-64
2021/08/25 05:17:25;;;;;;;8.68;6.85;;;;;;;20.97;100.00;98851.66;1702964;83;20960;-63
2021/08/25 05:19:54;;;;;;;7.45;6.72;;;;;;;21.02;100.00;98845.58;1701285;83;20995;-64
2021/08/25 05:22:22;;;;;;;9.10;6.85;;;;;;;21.10;100.00;98843.82;1701102;83;21156;-63
2021/08/25 05:24:50;;;;;;;7.72;6.85;;;;;;;21.15;100.00;98845.78;1702905;83;20945;-62
2021/08/25 05:27:18;;;;;;;8.30;6.80;;;;;;;21.20;100.00;98847.73;1701289;83;21496;-64
2021/08/25 05:29:46;;;;;;;7.83;7.03;;;;;;;21.24;100.00;98852.89;1701653;83;21019;-65
2021/08/25 05:32:14;;;;;;;7.53;6.72;;;;;;;21.28;100.00;98857.61;1725096;82;21011;-65
2021/08/25 05:34:44;;;;;;;7.87;6.65;;;;;;;21.32;100.00;98848.48;1750771;82;21193;-64
2021/08/25 05:37:11;;;;;;;9.40;6.80;;;;;;;21.36;100.00;98849.57;1708288;82;21529;-64
2021/08/25 05:39:39;;;;;;;7.45;6.70;;;;;;;21.41;100.00;98848.45;1705679;84;20932;-63
2021/08/25 05:42:07;;;;;;;10.23;7.12;;;;;;;21.43;100.00;98854.59;1708391;82;20892;-62
2021/08/25 05:44:35;;;;;;;8.08;6.72;;;;;;;21.45;100.00;98851.36;1706271;84;21048;-64
2021/08/25 05:47:03;;;;;;;8.00;6.45;;;;;;;21.46;100.00;98843.22;1708423;82;21569;-62
2021/08/25 05:49:31;;;;;;;7.92;6.55;;;;;;;21.51;100.00;98836.25;1706457;82;20901;-62
2021/08/25 05:51:59;;;;;;;7.87;6.35;;;;;;;21.56;100.00;98836.87;1708566;82;20996;-62
2021/08/25 05:54:26;;;;;;;7.42;6.60;;;;;;;21.60;100.00;98828.55;1706587;82;20984;-63
2021/08/25 05:56:54;;;;;;;7.72;6.05;;;;;;;21.65;100.00;98829.16;1716168;81;20960;-63
2021/08/25 05:59:23;;;;;;;7.22;6.53;;;;;;;21.68;100.00;98832.15;1737271;81;21506;-62
2021/08/25 06:01:50;;;;;;;9.98;6.55;;;;;;;21.72;100.00;98838.22;1729899;82;20860;-62
2021/08/25 06:04:19;;;;;;;6.90;6.20;;;;;;;21.71;100.00;98841.84;1712396;82;21115;-60
2021/08/25 06:06:47;;;;;;;9.83;6.35;;;;;;;21.74;100.00;98843.02;1708078;82;21540;-67
2021/08/25 06:09:15;;;;;;;10.90;6.85;;;;;;;21.75;100.00;98846.95;1708229;84;21011;-68
2021/08/25 06:11:42;;;;;;;7.72;6.12;;;;;;;21.77;100.00;98837.51;1708132;82;21325;-65
2021/08/25 06:14:12;;;;;;;7.35;6.12;;;;;;;21.79;100.00;98841.84;1709922;82;21035;-66
2021/08/25 06:16:43;;;;;;;7.83;6.58;;;;;;;21.82;100.00;98845.69;1724286;82;21455;-65
2021/08/25 06:19:10;;;;;;;10.03;6.55;;;;;;;21.84;100.00;98842.92;1736561;82;20928;-66
2021/08/25 06:21:38;;;;;;;8.73;5.45;;;;;;;21.88;100.00;98846.69;1737358;82;20955;-66
2021/08/25 06:24:06;;;;;;;5.92;5.10;;;;;;;21.96;100.00;98844.91;1708057;81;21581;-69
2021/08/25 06:26:34;;;;;;;6.28;5.45;;;;;;;22.08;100.00;98846.05;1737400;81;21522;-69
2021/08/25 06:29:01;;;;;;;6.03;5.42;;;;;;;22.16;100.00;98848.68;1736950;81;20975;-69
2021/08/25 06:31:30;;;;;;;5.58;5.00;;;;;;;22.23;100.00;98850.53;1737800;81;20999;-69
2021/08/25 06:33:57;;;;;;;6.67;5.03;;;;;;;22.31;100.00;98844.27;1741712;81;21366;-69
2021/08/25 06:36:26;;;;;;;5.45;4.05;;;;;;;22.40;100.00;98855.81;1706513;82;21459;-70
2021/08/25 06:38:53;;;;;;;12.03;4.33;;;;;;;22.47;100.00;98849.59;1715321;81;20995;-65
2021/08/25 06:41:21;;;;;;;5.55;4.42;;;;;;;22.52;100.00;98851.53;1727533;81;21152;-62
2021/08/25 06:43:49;;;;;;;4.37;3.98;;;;;;;22.57;100.00;98858.37;1722547;81;21070;-65
2021/08/25 06:46:17;;;;;;;4.95;4.20;;;;;;;22.63;100.00;98867.41;1728890;82;21007;-65
2021/08/25 06:48:45;;;;;;;6.83;4.65;;;;;;;22.70;100.00;98873.28;1717713;82;21562;-64
2021/08/25 06:51:13;;;;;;;4.35;3.90;;;;;;;22.77;100.00;98878.72;1706745;84;20929;-64
2021/08/25 06:53:41;;;;;;;4.58;3.27;;;;;;;22.81;100.00;98885.67;1726355;82;20951;-68
2021/08/25 06:56:08;;;;;;;4.08;2.80;;;;;;;22.85;100.00;98884.53;1707952;84;20967;-68
2021/08/25 06:58:36;;;;;;;4.90;3.35;;;;;;;22.87;100.00;98880.40;1726249;82;21011;-68
2021/08/25 07:01:04;;;;;;;8.58;2.90;;;;;;;22.86;100.00;98884.05;1734784;82;21117;-69
2021/08/25 07:03:32;;;;;;;3.72;2.80;;;;;;;22.83;100.00;98882.89;1741474;81;21008;-67
2021/08/25 07:06:00;;;;;;;3.67;2.80;;;;;;;22.81;100.00;98891.53;1726584;82;20975;-67
2021/08/25 07:08:28;;;;;;;8.55;3.20;;;;;;;22.79;100.00;98895.63;1719683;82;21443;-65
2021/08/25 07:10:55;;;;;;;3.42;2.60;;;;;;;22.79;100.00;98898.79;1717216;82;21138;-66
2021/08/25 07:13:24;;;;;;;2.67;2.47;;;;;;;22.79;100.00;98900.13;1720025;82;21142;-67
2021/08/25 07:15:52;;;;;;;2.40;2.20;;;;;;;22.78;100.00;98898.41;1705067;82;21097;-66
2021/08/25 07:18:20;;;;;;;2.35;2.15;;;;;;;22.74;100.00;98894.16;1724347;82;21601;-65
2021/08/25 07:20:50;;;;;;;2.02;1.82;;;;;;;22.74;100.00;98896.37;1707653;82;38183;-65
2021/08/25 07:23:17;;;;;;;1.92;1.80;;;;;;;22.74;100.00;98892.82;1731006;81;21069;-66
2021/08/25 07:25:46;;;;;;;2.15;1.60;;;;;;;22.73;100.00;98889.27;1755908;80;21155;-67
2021/08/25 07:28:14;;;;;;;2.25;1.70;;;;;;;22.75;100.00;98887.83;1755558;81;21097;-64
2021/08/25 07:30:42;;;;;;;1.72;1.62;;;;;;;22.78;100.00;98883.13;1753500;80;21002;-63
2021/08/25 07:33:13;;;;;;;4.55;1.50;;;;;;;22.83;100.00;98881.55;1755554;81;20966;-65
2021/08/25 07:35:41;;;;;;;3.12;1.62;;;;;;;22.87;100.00;98883.95;1755140;80;20876;-61
2021/08/25 07:38:09;;;;;;;1.52;1.40;;;;;;;22.92;100.00;98883.67;1756338;80;21131;-63
2021/08/25 07:40:36;;;;;;;5.67;1.60;;;;;;;23.08;100.00;98893.02;1717351;82;21579;-62
2021/08/25 07:43:05;;;;;;;3.02;1.60;;;;;;;23.20;100.00;98905.75;1721065;82;21074;-63
2021/08/25 07:45:36;;;;;;;4.17;1.98;;;;;;;23.30;100.00;98902.87;1734654;81;21088;-64
2021/08/25 07:48:05;;;;;;;1.60;1.50;;;;;;;23.39;100.00;98902.78;1745641;81;21600;-63
2021/08/25 07:50:33;;;;;;;15.58;13.83;;;;;;;23.45;100.00;98902.41;1755716;81;21788;-62
2021/08/25 07:53:01;;;;;;;5.92;5.42;;;;;;;23.51;100.00;98898.84;1761203;81;21032;-62
2021/08/25 07:55:29;;;;;;;3.35;2.65;;;;;;;23.51;100.00;98896.16;1751947;81;21031;-63
2021/08/25 07:57:57;;;;;;;2.12;1.92;;;;;;;23.50;100.00;98890.87;1753935;81;21150;-62
2021/08/25 08:00:25;;;;;;;16.20;8.05;;;;;;;23.48;100.00;98899.52;1754989;81;20913;-67
2021/08/25 08:02:53;;;;;;;5.45;3.22;;;;;;;23.41;100.00;98898.17;1754306;81;21127;-66
2021/08/25 08:05:21;;;;;;;2.22;1.70;;;;;;;23.42;100.00;98893.17;1755904;80;21062;-65
2021/08/25 08:07:50;;;;;;;4.70;1.37;;;;;;;23.47;100.00;98886.54;1753108;81;21000;-64
2021/08/25 08:10:18;;;;;;;2.55;1.37;;;;;;;23.52;100.00;98880.87;1749656;81;20986;-63
2021/08/25 08:12:45;;;;;;;3.05;1.20;;;;;;;23.60;100.00;98889.84;1760019;81;20978;-62
2021/08/25 08:15:14;;;;;;;51.53;2.40;;;;;;;23.71;100.00;98884.66;1759807;81;21179;-62
2021/08/25 08:17:45;;;;;;;1.45;1.12;;;;;;;23.82;100.00;98876.28;1743852;81;20884;-64
2021/08/25 08:20:12;;;;;;;1.52;1.40;;;;;;;23.94;100.00;98873.75;1756477;81;20923;-64
2021/08/25 08:22:40;;;;;;;2.08;1.45;;;;;;;24.04;100.00;98875.75;1758502;81;20947;-63
2021/08/25 08:25:08;;;;;;;3.17;1.37;;;;;;;24.09;100.00;98872.75;1758923;80;20948;-67
2021/08/25 08:27:35;;;;;;;2.47;1.50;;;;;;;24.11;100.00;98867.64;1740290;82;21154;-67
2021/08/25 08:30:04;;;;;;;3.45;1.90;;;;;;;24.18;100.00;98866.30;1759896;81;20920;-66
2021/08/25 08:32:31;;;;;;;3.12;1.95;;;;;;;24.19;100.00;98856.39;1755183;80;20927;-65
2021/08/25 08:34:58;;;;;;;8.50;1.95;;;;;;;24.28;100.00;98865.24;1768588;80;20848;-66
2021/08/25 08:37:25;;;;;;;6.62;2.30;;;;;;;24.39;100.00;98856.44;1766756;80;21435;-66
2021/08/25 08:39:53;;;;;;;4.92;2.17;;;;;;;24.49;100.00;98858.41;1753723;80;21019;-66
2021/08/25 08:42:31;;;;;;;4.17;2.52;;;;;;;24.58;100.00;98856.92;1744739;80;21522;-68
2021/08/25 08:44:59;;;;;;;2.52;2.33;;;;;;;24.72;100.00;98857.36;1746789;81;20900;-68
2021/08/25 08:47:27;;;;;;;3.25;2.95;;;;;;;24.83;100.00;98856.13;1759730;81;20887;-68
2021/08/25 08:49:58;;;;;;;97.02;3.92;;;;;;;24.87;100.00;98858.13;1768474;81;21765;-69
2021/08/25 08:52:25;;;;;;;3.90;2.30;;;;;;;24.80;100.00;98859.04;1771057;80;21070;-64
2021/08/25 08:54:54;;;;;;;2.40;1.70;;;;;;;24.73;100.00;98858.60;1756693;79;21423;-70
2021/08/25 08:57:21;;;;;;;4.40;1.80;;;;;;;24.76;100.00;98850.30;1752856;81;20918;-64
2021/08/25 08:59:49;;;;;;;3.05;1.82;;;;;;;24.90;100.00;98855.22;1745824;81;20898;-66
2021/08/25 09:02:40;;;;;;;2.45;1.80;;;;;;;25.08;100.00;98855.36;1742795;81;20970;-67
2021/08/25 09:05:19;;;;;;;26.85;18.30;;;;;;;25.25;100.00;98848.77;1746944;81;21096;-66
2021/08/25 09:08:01;;;;;;;7.75;5.65;;;;;;;25.46;100.00;98846.37;1741834;82;20935;-64
2021/08/25 09:10:34;;;;;;;4.03;2.80;;;;;;;25.63;100.00;98842.00;1742131;82;20880;-64
2021/08/25 09:13:11;;;;;;;4.90;2.45;;;;;;;25.80;100.00;98836.25;1741122;82;20974;-65
2021/08/25 09:15:41;;;;;;;4.78;1.70;;;;;;;25.91;100.00;98825.52;1741476;82;21012;-65
2021/08/25 09:18:11;;;;;;;1.77;1.67;;;;;;;25.90;100.00;98826.98;1741685;82;21303;-63
2021/08/25 09:20:45;;;;;;;2.00;1.90;;;;;;;25.98;100.00;98825.92;1742508;82;21459;-65
2021/08/25 09:23:23;;;;;;;2.87;2.20;;;;;;;26.08;100.00;98822.94;1742226;82;20911;-63
2021/08/25 09:25:58;;;;;;;2.58;2.08;;;;;;;26.09;100.00;98821.97;1742389;82;20852;-65
2021/08/25 09:28:33;;;;;;;2.83;2.20;;;;;;;26.06;100.00;98825.38;1740842;82;20971;-65
2021/08/25 09:31:11;;;;;;;2.65;2.42;;;;;;;26.10;100.00;98819.64;1743948;82;21093;-65
2021/08/25 09:33:44;;;;;;;3.37;2.30;;;;;;;26.11;100.00;98817.80;1742011;82;20916;-65
2021/08/25 09:36:14;;;;;;;3.12;2.20;;;;;;;25.98;100.00;98813.27;1742124;82;20888;-65
2021/08/25 09:38:54;;;;;;;2.00;1.80;;;;;;;25.96;100.00;98816.58;1742180;82;20931;-66
2021/08/25 09:41:21;;;;;;;3.42;2.22;;;;;;;26.04;100.00;98816.04;1741985;82;20880;-63
2021/08/25 09:43:51;;;;;;;2.70;2.15;;;;;;;26.15;100.00;98802.58;1742070;82;21408;-70
2021/08/25 09:46:25;;;;;;;12.35;2.52;;;;;;;26.22;100.00;98809.25;1741838;82;20939;-68
2021/08/25 09:48:57;;;;;;;2.87;1.90;;;;;;;26.27;100.00;98811.61;1742111;82;20920;-68
2021/08/25 09:51:40;;;;;;;4.83;2.05;;;;;;;26.20;100.00;98811.20;1742173;82;21002;-69
2021/08/25 09:54:14;;;;;;;3.42;2.22;;;;;;;26.10;100.00;98803.42;1743637;82;20908;-69
2021/08/25 09:56:43;;;;;;;5.28;2.20;;;;;;;25.94;100.00;98809.08;1741983;82;21103;-69
2021/08/25 09:59:12;;;;;;;3.75;2.45;;;;;;;25.73;100.00;98799.37;1742009;82;20975;-71
2021/08/25 10:01:41;;;;;;;5.20;3.30;;;;;;;25.54;100.00;98802.11;1742114;82;21007;-70
2021/08/25 10:04:11;;;;;;;4.28;3.22;;;;;;;25.38;100.00;98801.02;1741640;82;20907;-70
2021/08/25 10:06:47;;;;;;;6.33;3.40;;;;;;;25.09;100.00;98807.16;1741804;82;21061;-69
2021/08/25 10:09:15;;;;;;;4.95;3.35;;;;;;;24.94;100.00;98809.03;1742348;82;21517;-69
2021/08/25 10:11:53;;;;;;;3.72;3.17;;;;;;;24.79;100.00;98811.45;1742278;82;20987;-70
2021/08/25 10:14:22;;;;;;;3.77;3.40;;;;;;;24.64;100.00;98816.08;1739034;82;20848;-70
2021/08/25 10:16:51;;;;;;;3.42;3.17;;;;;;;24.52;100.00;98815.54;1742355;82;20892;-70
2021/08/25 10:19:39;;;;;;;5.58;3.30;;;;;;;24.47;100.00;98812.30;1742457;82;21387;-70
2021/08/25 10:22:22;;;;;;;3.98;3.52;;;;;;;24.39;100.00;98807.91;1742087;82;21083;-70
2021/08/25 10:25:02;;;;;;;4.22;3.52;;;;;;;24.32;100.00;98814.20;1742318;82;20884;-70
2021/08/25 10:27:32;;;;;;;4.05;3.67;;;;;;;24.28;100.00;98812.68;1742609;82;20848;-70
2021/08/25 10:30:09;;;;;;;4.60;3.30;;;;;;;24.29;100.00;98814.89;1742018;82;20940;-69
2021/08/25 10:32:53;;;;;;;4.33;3.08;;;;;;;24.27;100.00;98810.95;1742378;82;20984;-70
2021/08/25 10:35:34;;;;;;;3.77;3.15;;;;;;;24.23;100.00;98808.05;1738912;82;21096;-70
2021/08/25 10:38:24;;;;;;;3.37;3.08;;;;;;;24.23;100.00;98797.75;1742010;82;20872;-69
2021/08/25 10:41:00;;;;;;;3.47;3.17;;;;;;;24.25;100.00;98786.38;1742407;82;21467;-69
2021/08/25 10:43:42;;;;;;;3.80;3.50;;;;;;;24.31;100.00;98793.61;1742150;82;20903;-69
2021/08/25 10:46:13;;;;;;;3.27;3.05;;;;;;;24.35;100.00;98787.03;1742097;82;20892;-69
2021/08/25 10:48:54;;;;;;;7.62;3.67;;;;;;;24.40;100.00;98786.23;1742309;82;21083;-69
2021/08/25 10:51:33;;;;;;;5.53;3.90;;;;;;;24.49;100.00;98788.30;1742321;82;20935;-69
2021/08/25 10:54:08;;;;;;;3.30;3.00;;;;;;;24.59;100.00;98795.27;1742101;82;21427;-69
2021/08/25 10:56:44;;;;;;;3.55;3.25;;;;;;;24.63;100.00;98790.56;1742313;82;20935;-69
2021/08/25 10:59:15;;;;;;;5.40;4.17;;;;;;;24.74;100.00;98783.94;1741238;82;20939;-69
2021/08/25 11:01:45;;;;;;;11.48;3.67;;;;;;;24.82;100.00;98782.05;1742003;82;21105;-69
2021/08/25 11:04:22;;;;;;;6.60;4.00;;;;;;;24.87;100.00;98771.80;1742173;82;20891;-71
2021/08/25 11:07:01;;;;;;;4.10;3.42;;;;;;;24.93;100.00;98774.92;1742081;82;20979;-69
2021/08/25 11:09:32;;;;;;;3.65;2.90;;;;;;;25.07;100.00;98772.17;1740059;82;20947;-70
2021/08/25 11:12:12;;;;;;;3.35;3.05;;;;;;;25.18;100.00;98774.11;1741924;82;20944;-70
2021/08/25 11:14:51;;;;;;;7.45;3.27;;;;;;;25.17;100.00;98775.08;1742157;82;21103;-69
2021/08/25 11:17:24;;;;;;;4.58;3.75;;;;;;;25.02;100.00;98777.49;1742238;82;21482;-70
2021/08/25 11:19:58;;;;;;;6.35;3.00;;;;;;;24.95;100.00;98777.52;1742496;82;21537;-69
2021/08/25 11:22:36;;;;;;;3.12;2.83;;;;;;;24.86;100.00;98777.69;1741007;82;20911;-70
2021/08/25 11:25:10;;;;;;;16.90;10.08;;;;;;;24.80;100.00;98774.06;1742345;82;20931;-70
2021/08/25 11:27:49;;;;;;;8.40;6.03;;;;;;;24.77;100.00;98766.19;1742022;82;21105;-70
2021/08/25 11:30:26;;;;;;;4.03;3.12;;;;;;;24.79;100.00;98764.25;1742243;82;20927;-70
2021/08/25 11:32:57;;;;;;;10.95;6.05;;;;;;;24.93;100.00;98754.69;1742054;82;20899;-70
2021/08/25 11:35:37;;;;;;;9.25;6.15;;;;;;;25.15;100.00;98754.57;1739194;82;20904;-70
2021/08/25 11:38:09;;;;;;;4.55;3.08;;;;;;;25.33;100.00;98764.90;1735145;82;20940;-70